Salt Lake City, Utah
Traffic Map
Current Weather Conditions
Salt Lake City, Utah
Broken Clouds
Broken Clouds
74°
Feels Like: 74°
Wind Chill: 74° Ceiling: 17000
Heat Index: 74° Visibility: 10mi
Dew Point: 56° Wind: 9mph
Humidity: 53% Direction: 150° (SSE)
Pressure: 30.17in Gusts: 0mph
Raw Report DataKSLC 231454Z 15008KT 10SM FEW090 BKN170 BKN240 23/13 A3017 RMK AO2 SLP160 VIRGA DSNT SE AND SW AND NW CB DSNT NW-NE TCU DSNT SE T02330133 51006
Traffic Incident Summary
Active as of:
Severity:
Category:
InformationThere was an issue retrieving the traffic information for this location. Please try a different location or try again shortly.
Advertisements